Time;durP1;ratioP1;P1;durP2;ratioP2;P2;SDS_P1;SDS_P2;PMS_P1;PMS_P2;Temp;Humidity;BMP_temperature;BMP_pressure;BME280_temperature;BME280_humidity;BME280_pressure;Samples;Min_cycle;Max_cycle;Signal;HPM_P1;HPM_P2
2022/10/01 00:01:48;;;;;;;4.47;3.43;;;;;;;;;;5079767;28;20205;-61
2022/10/01 00:04:16;;;;;;;5.40;3.80;;;;;;;;;;5064924;28;20230;-61
2022/10/01 00:06:44;;;;;;;7.87;3.70;;;;;;;;;;5071968;28;20206;-61
2022/10/01 00:09:12;;;;;;;4.93;3.40;;;;;;;;;;5068692;28;20215;-61
2022/10/01 00:11:42;;;;;;;4.57;3.40;;;;;;;;;;5060774;28;20209;-61
2022/10/01 00:14:10;;;;;;;6.43;3.60;;;;;;;;;;5071067;28;20230;-61
2022/10/01 00:16:38;;;;;;;4.10;3.00;;;;;;;;;;5073506;28;20203;-62
2022/10/01 00:19:06;;;;;;;6.27;3.57;;;;;;;;;;5077060;28;20213;-61
2022/10/01 00:21:34;;;;;;;8.27;4.10;;;;;;;;;;5068649;28;20209;-61
2022/10/01 00:24:04;;;;;;;6.67;3.80;;;;;;;;;;5068817;28;20225;-61
2022/10/01 00:26:33;;;;;;;6.73;3.80;;;;;;;;;;5073367;28;20576;-61
2022/10/01 00:29:04;;;;;;;6.90;3.73;;;;;;;;;;5072767;28;20286;-61
2022/10/01 00:31:32;;;;;;;3.93;3.20;;;;;;;;;;5068156;28;20270;-61
2022/10/01 00:34:02;;;;;;;4.23;3.67;;;;;;;;;;5068446;28;20218;-61
2022/10/01 00:36:31;;;;;;;7.57;3.60;;;;;;;;;;5071486;28;20207;-61
2022/10/01 00:38:59;;;;;;;6.93;3.97;;;;;;;;;;5080274;28;20195;-61
2022/10/01 00:41:28;;;;;;;4.53;3.30;;;;;;;;;;5068215;28;20662;-61
2022/10/01 00:43:57;;;;;;;7.07;3.77;;;;;;;;;;5066971;28;20220;-61
2022/10/01 00:46:28;;;;;;;3.77;3.43;;;;;;;;;;5068876;28;20203;-61
2022/10/01 00:48:58;;;;;;;6.37;3.67;;;;;;;;;;5075034;28;20293;-61
2022/10/01 00:51:28;;;;;;;8.40;3.70;;;;;;;;;;5069298;28;20313;-61
2022/10/01 00:54:00;;;;;;;4.00;3.20;;;;;;;;;;5066251;28;20585;-61
2022/10/01 00:56:28;;;;;;;3.87;3.00;;;;;;;;;;5062751;28;20778;-61
2022/10/01 00:58:57;;;;;;;4.53;2.60;;;;;;;;;;5073013;28;20684;-61
2022/10/01 01:01:26;;;;;;;4.47;3.70;;;;;;;;;;5061665;28;20282;-61
2022/10/01 01:03:55;;;;;;;6.60;2.80;;;;;;;;;;5072433;28;20424;-61
2022/10/01 01:06:23;;;;;;;4.00;3.00;;;;;;;;;;5068359;28;20262;-60
2022/10/01 01:08:53;;;;;;;3.27;2.60;;;;;;;;;;5071157;28;20293;-60
2022/10/01 01:11:24;;;;;;;4.40;3.00;;;;;;;;;;5071619;28;20222;-61
2022/10/01 01:13:56;;;;;;;5.37;3.10;;;;;;;;;;5057291;28;20218;-61
2022/10/01 01:16:28;;;;;;;3.80;3.40;;;;;;;;;;5062627;28;20290;-61
2022/10/01 01:19:00;;;;;;;3.70;2.90;;;;;;;;;;5067625;28;20278;-61
2022/10/01 01:21:30;;;;;;;4.23;2.80;;;;;;;;;;5075226;28;20262;-61
2022/10/01 01:24:17;;;;;;;3.37;3.03;;;;;;;;;;5061492;28;20222;-61
2022/10/01 01:26:55;;;;;;;6.10;2.87;;;;;;;;;;5070231;28;20206;-61
2022/10/01 01:29:26;;;;;;;4.73;2.70;;;;;;;;;;5070847;28;20212;-60
2022/10/01 01:31:55;;;;;;;4.20;2.93;;;;;;;;;;5062646;28;20676;-61
2022/10/01 01:34:25;;;;;;;3.27;2.93;;;;;;;;;;5061948;28;20223;-61
2022/10/01 01:36:57;;;;;;;7.70;4.23;;;;;;;;;;5067608;28;20329;-60
2022/10/01 01:39:27;;;;;;;6.63;3.77;;;;;;;;;;5068306;28;20310;-61
2022/10/01 01:41:57;;;;;;;4.93;3.70;;;;;;;;;;5075410;28;20281;-61
2022/10/01 01:44:28;;;;;;;6.37;3.63;;;;;;;;;;5067153;28;20237;-61
2022/10/01 01:46:57;;;;;;;3.23;2.90;;;;;;;;;;5070078;28;20207;-60
2022/10/01 01:49:25;;;;;;;5.33;3.07;;;;;;;;;;5075324;28;20202;-61
2022/10/01 01:51:56;;;;;;;4.27;3.13;;;;;;;;;;5061410;28;20294;-61
2022/10/01 01:54:24;;;;;;;3.00;2.73;;;;;;;;;;5055020;28;20698;-61
2022/10/01 01:56:53;;;;;;;3.33;2.50;;;;;;;;;;5063041;28;20237;-61
2022/10/01 01:59:21;;;;;;;4.23;3.00;;;;;;;;;;5060744;28;20207;-61
2022/10/01 02:01:51;;;;;;;5.53;2.80;;;;;;;;;;5055590;28;20236;-60
2022/10/01 02:04:21;;;;;;;2.67;2.47;;;;;;;;;;5058396;28;20219;-61
2022/10/01 02:07:00;;;;;;;6.67;3.40;;;;;;;;;;5059943;28;20213;-61
2022/10/01 02:09:31;;;;;;;5.50;2.83;;;;;;;;;;5057059;28;20258;-61
2022/10/01 02:12:06;;;;;;;3.17;2.87;;;;;;;;;;5057971;28;20223;-61
2022/10/01 02:14:36;;;;;;;4.07;2.47;;;;;;;;;;5055606;28;20232;-61
2022/10/01 02:17:12;;;;;;;3.87;2.97;;;;;;;;;;5063413;28;20207;-61
2022/10/01 02:19:43;;;;;;;3.63;2.60;;;;;;;;;;5055416;28;20214;-61
2022/10/01 02:22:13;;;;;;;3.17;2.73;;;;;;;;;;5058471;28;20203;-60
2022/10/01 02:24:43;;;;;;;3.43;2.20;;;;;;;;;;5066651;28;20578;-60
2022/10/01 02:27:13;;;;;;;5.40;2.70;;;;;;;;;;5069578;28;20285;-60
2022/10/01 02:29:41;;;;;;;5.23;3.40;;;;;;;;;;5064301;28;20658;-61
2022/10/01 02:32:12;;;;;;;4.00;3.00;;;;;;;;;;5075406;28;20224;-60
2022/10/01 02:34:44;;;;;;;4.20;3.37;;;;;;;;;;5069235;28;20218;-60
2022/10/01 02:37:12;;;;;;;4.77;2.70;;;;;;;;;;5060773;28;20203;-61
2022/10/01 02:39:42;;;;;;;3.47;2.97;;;;;;;;;;5063935;28;20194;-60
2022/10/01 02:42:12;;;;;;;4.03;3.07;;;;;;;;;;5068379;28;20245;-61
2022/10/01 02:44:42;;;;;;;8.10;3.40;;;;;;;;;;5063797;28;20224;-60
2022/10/01 02:47:17;;;;;;;3.20;2.70;;;;;;;;;;5068727;28;20202;-61
2022/10/01 02:49:45;;;;;;;5.03;3.00;;;;;;;;;;5065986;28;20202;-61
2022/10/01 02:52:17;;;;;;;5.47;2.70;;;;;;;;;;5067342;28;20569;-61
2022/10/01 02:54:46;;;;;;;5.43;2.93;;;;;;;;;;5077630;28;20246;-61
2022/10/01 02:57:23;;;;;;;3.13;2.83;;;;;;;;;;5060154;28;20235;-61
2022/10/01 02:59:51;;;;;;;3.50;2.67;;;;;;;;;;5063885;28;20225;-60
2022/10/01 03:02:21;;;;;;;3.20;2.63;;;;;;;;;;5061480;28;20194;-60
2022/10/01 03:04:49;;;;;;;4.27;3.00;;;;;;;;;;5060900;28;20750;-61
2022/10/01 03:07:17;;;;;;;4.03;2.70;;;;;;;;;;5063970;28;20198;-60
2022/10/01 03:09:45;;;;;;;3.60;3.27;;;;;;;;;;5057322;28;20721;-60
2022/10/01 03:12:13;;;;;;;5.23;2.90;;;;;;;;;;5057717;28;20264;-60
2022/10/01 03:14:42;;;;;;;3.07;2.77;;;;;;;;;;5058185;28;20222;-60
2022/10/01 03:17:11;;;;;;;3.90;3.50;;;;;;;;;;5057608;28;20643;-60
2022/10/01 03:19:40;;;;;;;4.97;3.00;;;;;;;;;;5056776;28;20209;-61
2022/10/01 03:22:08;;;;;;;3.83;2.83;;;;;;;;;;5060451;28;20201;-60
2022/10/01 03:24:36;;;;;;;4.80;3.33;;;;;;;;;;5058595;28;20222;-61
2022/10/01 03:27:05;;;;;;;4.87;2.60;;;;;;;;;;5058608;28;20638;-60
2022/10/01 03:29:33;;;;;;;3.83;3.43;;;;;;;;;;5061108;28;20305;-61
2022/10/01 03:32:01;;;;;;;3.90;3.43;;;;;;;;;;5075704;28;20222;-61
2022/10/01 03:34:29;;;;;;;5.10;3.07;;;;;;;;;;5074534;28;20309;-61
2022/10/01 03:36:58;;;;;;;6.50;3.20;;;;;;;;;;5070616;28;20289;-60
2022/10/01 03:39:26;;;;;;;4.87;2.87;;;;;;;;;;5074761;28;20212;-61
2022/10/01 03:41:54;;;;;;;4.53;3.33;;;;;;;;;;5057411;28;20201;-60
2022/10/01 03:44:22;;;;;;;5.87;3.30;;;;;;;;;;5073668;28;20222;-60
2022/10/01 03:46:50;;;;;;;3.13;2.83;;;;;;;;;;5050120;28;20198;-60
2022/10/01 03:49:18;;;;;;;5.17;3.13;;;;;;;;;;5064933;28;20286;-60
2022/10/01 03:51:46;;;;;;;3.17;2.87;;;;;;;;;;5060739;28;20218;-60
2022/10/01 03:54:16;;;;;;;3.40;2.57;;;;;;;;;;5069315;28;20233;-60
2022/10/01 03:56:44;;;;;;;2.83;2.50;;;;;;;;;;5064864;28;20223;-61
2022/10/01 03:59:12;;;;;;;3.27;2.80;;;;;;;;;;5065339;28;20209;-60
2022/10/01 04:01:40;;;;;;;3.97;2.83;;;;;;;;;;5072982;28;20198;-60
2022/10/01 04:04:09;;;;;;;3.13;2.83;;;;;;;;;;5062913;28;20249;-60
2022/10/01 04:06:37;;;;;;;5.70;3.57;;;;;;;;;;5060021;28;20225;-62
2022/10/01 04:09:05;;;;;;;6.00;3.57;;;;;;;;;;5071102;28;20289;-60
2022/10/01 04:11:34;;;;;;;3.00;2.70;;;;;;;;;;5066260;28;20226;-63
2022/10/01 04:14:03;;;;;;;4.57;3.10;;;;;;;;;;5064468;28;20219;-63
2022/10/01 04:16:33;;;;;;;3.07;2.70;;;;;;;;;;5073001;28;20210;-62
2022/10/01 04:19:01;;;;;;;3.13;2.70;;;;;;;;;;5072352;28;20252;-63
2022/10/01 04:21:29;;;;;;;3.87;3.00;;;;;;;;;;5062962;28;20561;-62
2022/10/01 04:23:58;;;;;;;3.60;2.97;;;;;;;;;;5049268;28;20224;-63
2022/10/01 04:26:26;;;;;;;5.00;3.00;;;;;;;;;;5072030;28;20202;-60
2022/10/01 04:28:55;;;;;;;3.60;2.80;;;;;;;;;;5075260;28;20203;-60
2022/10/01 04:31:28;;;;;;;5.27;3.37;;;;;;;;;;5075737;28;20300;-60
2022/10/01 04:33:56;;;;;;;3.93;3.30;;;;;;;;;;5067244;28;20258;-61
2022/10/01 04:36:25;;;;;;;6.73;3.40;;;;;;;;;;5059925;28;20198;-61
2022/10/01 04:38:53;;;;;;;5.23;3.37;;;;;;;;;;5075199;28;20270;-61
2022/10/01 04:41:29;;;;;;;6.60;4.10;;;;;;;;;;5061463;28;20202;-61
2022/10/01 04:43:59;;;;;;;5.47;4.07;;;;;;;;;;5075819;28;20378;-60
2022/10/01 04:46:28;;;;;;;3.97;3.27;;;;;;;;;;5072576;28;20207;-61
2022/10/01 04:48:56;;;;;;;5.17;3.77;;;;;;;;;;5070354;28;20262;-61
2022/10/01 04:51:24;;;;;;;5.80;3.67;;;;;;;;;;5071002;28;20205;-61
2022/10/01 04:53:52;;;;;;;5.60;4.10;;;;;;;;;;5069654;28;20314;-61
2022/10/01 04:56:20;;;;;;;7.10;4.53;;;;;;;;;;5067696;28;20231;-61
2022/10/01 04:58:48;;;;;;;5.53;3.80;;;;;;;;;;5076483;28;20206;-61
2022/10/01 05:01:17;;;;;;;4.87;3.67;;;;;;;;;;5079605;28;20573;-60
2022/10/01 05:03:46;;;;;;;6.43;3.97;;;;;;;;;;5065282;28;20762;-60
2022/10/01 05:06:14;;;;;;;4.50;3.50;;;;;;;;;;5071497;28;20296;-62
2022/10/01 05:08:42;;;;;;;5.57;3.37;;;;;;;;;;5063684;28;20203;-60
2022/10/01 05:11:10;;;;;;;4.93;3.27;;;;;;;;;;5072782;28;20702;-62
2022/10/01 05:13:38;;;;;;;5.37;3.87;;;;;;;;;;5066918;28;20226;-60
2022/10/01 05:16:06;;;;;;;4.17;2.93;;;;;;;;;;5069176;28;20199;-61
2022/10/01 05:18:35;;;;;;;7.13;3.23;;;;;;;;;;5068609;28;20203;-61
2022/10/01 05:21:08;;;;;;;6.53;3.00;;;;;;;;;;5061298;28;20202;-60
2022/10/01 05:23:37;;;;;;;5.40;3.13;;;;;;;;;;5071752;28;20218;-60
2022/10/01 05:26:05;;;;;;;6.50;3.30;;;;;;;;;;5067763;28;20285;-61
2022/10/01 05:28:34;;;;;;;3.93;3.00;;;;;;;;;;5078502;28;20564;-61
2022/10/01 05:31:03;;;;;;;3.10;2.90;;;;;;;;;;5078003;28;20715;-62
2022/10/01 05:33:32;;;;;;;4.43;3.07;;;;;;;;;;5067979;28;20257;-62
2022/10/01 05:36:02;;;;;;;4.63;2.33;;;;;;;;;;5067757;28;20205;-62
2022/10/01 05:38:30;;;;;;;3.40;2.60;;;;;;;;;;5073741;28;20734;-61
2022/10/01 05:40:58;;;;;;;4.37;3.10;;;;;;;;;;5067328;28;20198;-62
2022/10/01 05:43:26;;;;;;;3.90;2.37;;;;;;;;;;5074347;28;20218;-62
2022/10/01 05:45:54;;;;;;;3.10;2.90;;;;;;;;;;5067452;28;20205;-62
2022/10/01 05:48:22;;;;;;;5.23;2.93;;;;;;;;;;5058844;28;20266;-63
2022/10/01 05:50:50;;;;;;;2.53;2.33;;;;;;;;;;5067125;28;20199;-63
2022/10/01 05:53:21;;;;;;;3.77;2.50;;;;;;;;;;5068009;28;20241;-63
2022/10/01 05:55:49;;;;;;;4.27;2.90;;;;;;;;;;5068675;28;20238;-62
2022/10/01 05:58:17;;;;;;;4.97;3.10;;;;;;;;;;5069841;28;20296;-63
2022/10/01 06:00:45;;;;;;;3.53;2.10;;;;;;;;;;5072146;28;20199;-62
2022/10/01 06:03:13;;;;;;;5.13;2.73;;;;;;;;;;5064324;28;20205;-62
2022/10/01 06:05:44;;;;;;;2.70;2.50;;;;;;;;;;5066777;28;20203;-62
2022/10/01 06:08:13;;;;;;;6.57;3.20;;;;;;;;;;5057136;28;20207;-63
2022/10/01 06:10:43;;;;;;;3.10;2.40;;;;;;;;;;5054265;28;20727;-62
2022/10/01 06:13:16;;;;;;;3.07;2.73;;;;;;;;;;5051624;28;20227;-63
2022/10/01 06:15:45;;;;;;;3.97;2.60;;;;;;;;;;5052839;28;20235;-62
2022/10/01 06:18:14;;;;;;;4.27;2.80;;;;;;;;;;5056188;28;20202;-62
2022/10/01 06:20:42;;;;;;;2.90;2.63;;;;;;;;;;5055857;28;20627;-63
2022/10/01 06:23:11;;;;;;;3.80;2.53;;;;;;;;;;5048157;28;20278;-62
2022/10/01 06:25:39;;;;;;;4.57;2.50;;;;;;;;;;5055635;28;20225;-62
2022/10/01 06:28:10;;;;;;;4.50;2.63;;;;;;;;;;5050579;28;20200;-63
2022/10/01 06:30:39;;;;;;;2.27;2.17;;;;;;;;;;5064132;28;20536;-62
2022/10/01 06:33:08;;;;;;;2.67;2.00;;;;;;;;;;5063852;28;20223;-63
2022/10/01 06:35:39;;;;;;;2.10;2.00;;;;;;;;;;5063124;28;20198;-63
2022/10/01 06:38:08;;;;;;;3.33;2.40;;;;;;;;;;5065952;28;20252;-62
2022/10/01 06:40:36;;;;;;;4.60;2.93;;;;;;;;;;5060915;28;20209;-62
2022/10/01 06:43:06;;;;;;;2.20;2.00;;;;;;;;;;5072904;28;20556;-63
2022/10/01 06:45:38;;;;;;;2.23;2.00;;;;;;;;;;5073269;28;20199;-62
2022/10/01 06:48:06;;;;;;;2.23;2.00;;;;;;;;;;5063141;28;20609;-63
2022/10/01 06:50:34;;;;;;;2.77;1.90;;;;;;;;;;5058761;28;20194;-63
2022/10/01 06:53:02;;;;;;;2.60;2.03;;;;;;;;;;5068807;28;20222;-63
2022/10/01 06:55:31;;;;;;;2.07;1.87;;;;;;;;;;5064682;28;20199;-63
2022/10/01 06:58:00;;;;;;;3.37;2.17;;;;;;;;;;5056994;28;20199;-62
2022/10/01 07:00:28;;;;;;;1.90;1.70;;;;;;;;;;5063862;28;20294;-62
2022/10/01 07:02:59;;;;;;;3.40;1.93;;;;;;;;;;5062684;28;20281;-63
2022/10/01 07:05:27;;;;;;;3.07;1.90;;;;;;;;;;5058340;28;20282;-62
2022/10/01 07:07:55;;;;;;;2.20;1.80;;;;;;;;;;5065493;28;20210;-63
2022/10/01 07:10:24;;;;;;;4.17;2.40;;;;;;;;;;5060363;28;20290;-62
2022/10/01 07:12:52;;;;;;;2.00;1.73;;;;;;;;;;5050940;28;20222;-62
2022/10/01 07:15:21;;;;;;;2.07;1.87;;;;;;;;;;5072944;28;20226;-62
2022/10/01 07:17:50;;;;;;;4.53;1.80;;;;;;;;;;5068152;28;20262;-62
2022/10/01 07:20:21;;;;;;;2.13;2.03;;;;;;;;;;5075606;28;20204;-62
2022/10/01 07:22:49;;;;;;;2.10;1.90;;;;;;;;;;5068908;28;20202;-62
2022/10/01 07:25:17;;;;;;;2.07;1.93;;;;;;;;;;5072189;28;20226;-62
2022/10/01 07:27:45;;;;;;;2.60;1.83;;;;;;;;;;5062703;28;20204;-63
2022/10/01 07:30:13;;;;;;;1.87;1.70;;;;;;;;;;5067986;28;20205;-62
2022/10/01 07:32:43;;;;;;;5.20;1.97;;;;;;;;;;5064284;28;20203;-63
2022/10/01 07:35:11;;;;;;;3.17;2.17;;;;;;;;;;5057548;28;20225;-63
2022/10/01 07:37:41;;;;;;;4.07;2.37;;;;;;;;;;5067466;28;20201;-62
2022/10/01 07:40:09;;;;;;;5.30;2.10;;;;;;;;;;5068418;28;20685;-63
2022/10/01 07:42:37;;;;;;;3.03;1.90;;;;;;;;;;5066644;28;20756;-62
2022/10/01 07:45:06;;;;;;;2.67;2.03;;;;;;;;;;5063009;28;20214;-62
2022/10/01 07:47:34;;;;;;;3.67;2.13;;;;;;;;;;5066945;28;20203;-62
2022/10/01 07:50:02;;;;;;;2.10;1.93;;;;;;;;;;5065719;28;20281;-63
2022/10/01 07:52:30;;;;;;;3.40;2.10;;;;;;;;;;5065053;28;20209;-63
2022/10/01 07:55:00;;;;;;;2.77;1.97;;;;;;;;;;5068346;28;20556;-63
2022/10/01 07:57:27;;;;;;;3.27;2.50;;;;;;;;;;5061019;28;20302;-63
2022/10/01 07:59:55;;;;;;;3.73;2.40;;;;;;;;;;5059629;28;20764;-62
2022/10/01 08:02:23;;;;;;;2.20;2.00;;;;;;;;;;5068290;28;20213;-64
2022/10/01 08:07:37;;;;;;;5.00;2.43;;;;;;;;;;5061039;28;20213;-63
2022/10/01 08:10:07;;;;;;;3.53;2.10;;;;;;;;;;5065223;28;20203;-65
2022/10/01 08:12:35;;;;;;;3.07;2.27;;;;;;;;;;5062022;28;20281;-64
2022/10/01 08:15:03;;;;;;;3.37;2.40;;;;;;;;;;5073192;28;20228;-65
2022/10/01 08:17:31;;;;;;;3.00;2.70;;;;;;;;;;5058640;28;20205;-64
2022/10/01 08:19:59;;;;;;;4.13;2.20;;;;;;;;;;5068550;28;20203;-65
2022/10/01 08:22:27;;;;;;;2.57;2.13;;;;;;;;;;5072916;28;20201;-65
2022/10/01 08:24:55;;;;;;;2.53;2.13;;;;;;;;;;5077150;28;20305;-64
2022/10/01 08:27:25;;;;;;;2.80;2.53;;;;;;;;;;5073023;28;20205;-64
2022/10/01 08:29:53;;;;;;;2.47;2.27;;;;;;;;;;5065712;28;20278;-64
2022/10/01 08:32:22;;;;;;;3.67;2.80;;;;;;;;;;5060720;28;20207;-64
2022/10/01 08:34:51;;;;;;;2.77;2.23;;;;;;;;;;5067607;28;20222;-64
2022/10/01 08:37:27;;;;;;;2.30;2.10;;;;;;;;;;5069910;28;20202;-64
2022/10/01 08:39:55;;;;;;;6.53;2.70;;;;;;;;;;5074786;28;20209;-64
2022/10/01 08:42:39;;;;;;;2.57;2.37;;;;;;;;;;5076196;28;20738;-65
2022/10/01 08:45:11;;;;;;;4.03;2.70;;;;;;;;;;5060455;28;20575;-64
2022/10/01 08:47:41;;;;;;;2.77;2.50;;;;;;;;;;5066352;28;20205;-65
2022/10/01 08:50:13;;;;;;;2.87;2.67;;;;;;;;;;5074649;28;20198;-65
2022/10/01 08:52:42;;;;;;;3.80;2.70;;;;;;;;;;5071151;28;20202;-64
2022/10/01 08:55:12;;;;;;;3.77;2.70;;;;;;;;;;5066105;28;20231;-65
2022/10/01 08:57:45;;;;;;;4.57;2.90;;;;;;;;;;5067941;28;20235;-64
2022/10/01 09:00:15;;;;;;;2.60;2.40;;;;;;;;;;5065611;28;20202;-64
2022/10/01 09:02:44;;;;;;;3.53;2.93;;;;;;;;;;5078190;28;20289;-64
2022/10/01 09:05:17;;;;;;;4.40;2.70;;;;;;;;;;5067699;28;20753;-63
2022/10/01 09:07:49;;;;;;;3.43;2.60;;;;;;;;;;5068408;28;20198;-64
2022/10/01 09:10:26;;;;;;;3.20;2.30;;;;;;;;;;5067364;28;20281;-62
2022/10/01 09:13:05;;;;;;;3.83;2.70;;;;;;;;;;5068993;28;20203;-64
2022/10/01 09:15:38;;;;;;;5.17;2.67;;;;;;;;;;5065436;28;20221;-63
2022/10/01 09:18:15;;;;;;;2.77;2.27;;;;;;;;;;5067764;28;20239;-64
2022/10/01 09:20:45;;;;;;;2.60;2.40;;;;;;;;;;5066183;28;20200;-64
2022/10/01 09:23:19;;;;;;;3.27;2.77;;;;;;;;;;5066479;28;20203;-64
2022/10/01 09:25:50;;;;;;;3.80;2.87;;;;;;;;;;5067751;28;20217;-65
2022/10/01 09:28:21;;;;;;;2.47;2.30;;;;;;;;;;5061421;28;20286;-64
2022/10/01 09:30:54;;;;;;;4.80;2.57;;;;;;;;;;5073312;28;20663;-64
2022/10/01 09:33:23;;;;;;;3.23;2.57;;;;;;;;;;5069439;28;20750;-64
2022/10/01 09:35:55;;;;;;;3.10;2.80;;;;;;;;;;5071560;28;20210;-63
2022/10/01 09:38:25;;;;;;;2.87;2.50;;;;;;;;;;5069977;28;20573;-64
2022/10/01 09:40:54;;;;;;;3.20;2.60;;;;;;;;;;5065471;28;20209;-64
2022/10/01 09:43:25;;;;;;;2.67;2.40;;;;;;;;;;5075754;28;20226;-64
2022/10/01 09:45:53;;;;;;;3.60;2.30;;;;;;;;;;5066015;28;20198;-64
2022/10/01 09:48:26;;;;;;;4.23;2.27;;;;;;;;;;5060314;28;20253;-64
2022/10/01 09:50:57;;;;;;;2.73;2.53;;;;;;;;;;5062205;28;20670;-64
2022/10/01 09:53:30;;;;;;;6.77;2.60;;;;;;;;;;5070348;28;20228;-64
2022/10/01 09:56:00;;;;;;;3.27;2.20;;;;;;;;;;5066875;28;20239;-64
2022/10/01 09:58:30;;;;;;;2.43;2.23;;;;;;;;;;5067255;28;20285;-64
2022/10/01 10:00:58;;;;;;;3.70;2.40;;;;;;;;;;5066915;28;20722;-64
2022/10/01 10:03:29;;;;;;;2.73;2.47;;;;;;;;;;5063575;28;20302;-64
2022/10/01 10:05:58;;;;;;;5.67;2.17;;;;;;;;;;5058702;28;20198;-65
2022/10/01 10:08:28;;;;;;;2.40;2.20;;;;;;;;;;5066753;28;20247;-65
2022/10/01 10:10:59;;;;;;;4.03;2.30;;;;;;;;;;5058703;28;20238;-64
2022/10/01 10:13:37;;;;;;;2.60;2.40;;;;;;;;;;5074016;28;20229;-63
2022/10/01 10:16:09;;;;;;;2.77;2.10;;;;;;;;;;5064364;28;20249;-64
2022/10/01 10:18:39;;;;;;;3.43;2.23;;;;;;;;;;5073298;28;20565;-65
2022/10/01 10:21:13;;;;;;;4.40;2.53;;;;;;;;;;5076064;28;20201;-64
2022/10/01 10:23:49;;;;;;;3.77;2.33;;;;;;;;;;5068960;28;20254;-64
2022/10/01 10:26:21;;;;;;;3.77;2.47;;;;;;;;;;5071119;28;20619;-64
2022/10/01 10:28:51;;;;;;;2.77;2.50;;;;;;;;;;5067661;28;20225;-64
2022/10/01 10:31:20;;;;;;;2.37;2.13;;;;;;;;;;5066495;28;20207;-64
2022/10/01 10:33:51;;;;;;;2.87;2.67;;;;;;;;;;5066527;28;20254;-64
2022/10/01 10:36:19;;;;;;;2.83;2.57;;;;;;;;;;5060535;28;20224;-64
2022/10/01 10:38:49;;;;;;;3.20;2.60;;;;;;;;;;5061038;28;20233;-65
2022/10/01 10:41:24;;;;;;;3.80;2.70;;;;;;;;;;5075235;28;20205;-65
2022/10/01 10:43:56;;;;;;;2.40;2.20;;;;;;;;;;5068637;28;20221;-64
2022/10/01 10:46:30;;;;;;;3.53;2.77;;;;;;;;;;5071102;28;20200;-64
2022/10/01 10:49:03;;;;;;;6.20;2.70;;;;;;;;;;5062052;28;20209;-64
2022/10/01 10:51:52;;;;;;;3.67;2.60;;;;;;;;;;5071751;28;20262;-64
2022/10/01 10:54:22;;;;;;;2.57;2.33;;;;;;;;;;5059033;28;20709;-62
2022/10/01 10:57:01;;;;;;;3.17;2.30;;;;;;;;;;5065024;28;20320;-64
2022/10/01 10:59:32;;;;;;;2.90;2.40;;;;;;;;;;5064701;28;20286;-63
2022/10/01 11:02:02;;;;;;;3.47;2.40;;;;;;;;;;5066143;28;20550;-64
2022/10/01 11:04:37;;;;;;;2.93;2.67;;;;;;;;;;5062313;28;20225;-64
2022/10/01 11:07:06;;;;;;;4.00;2.50;;;;;;;;;;5068663;28;20605;-64
2022/10/01 11:09:42;;;;;;;3.13;2.50;;;;;;;;;;5072030;28;20542;-64
2022/10/01 11:12:17;;;;;;;3.33;2.83;;;;;;;;;;5072773;28;20202;-64
2022/10/01 11:15:05;;;;;;;3.93;2.53;;;;;;;;;;5068735;28;20703;-62
2022/10/01 11:17:45;;;;;;;2.40;2.20;;;;;;;;;;5054102;28;20281;-64
2022/10/01 11:20:19;;;;;;;3.47;2.50;;;;;;;;;;5060847;28;20199;-65
2022/10/01 11:22:54;;;;;;;4.53;2.40;;;;;;;;;;5057463;28;20257;-65
2022/10/01 11:25:30;;;;;;;6.27;3.43;;;;;;;;;;5074646;28;20280;-64
2022/10/01 11:28:04;;;;;;;3.07;2.77;;;;;;;;;;5062421;28;20281;-64
2022/10/01 11:30:36;;;;;;;2.83;2.50;;;;;;;;;;5057847;28;20199;-62
2022/10/01 11:33:09;;;;;;;3.10;2.80;;;;;;;;;;5072425;28;20198;-63
2022/10/01 11:35:51;;;;;;;2.57;2.37;;;;;;;;;;5060680;28;20218;-65
2022/10/01 11:38:25;;;;;;;2.53;2.33;;;;;;;;;;5068260;28;20209;-62
2022/10/01 11:40:55;;;;;;;2.87;2.57;;;;;;;;;;5063428;28;20684;-62
2022/10/01 11:43:26;;;;;;;2.93;2.60;;;;;;;;;;5062343;28;20701;-63
2022/10/01 11:45:56;;;;;;;2.60;2.40;;;;;;;;;;5062932;28;20663;-62
2022/10/01 11:48:28;;;;;;;4.17;2.60;;;;;;;;;;5065745;28;20199;-62
2022/10/01 11:51:00;;;;;;;5.43;2.83;;;;;;;;;;5062708;28;20247;-62
2022/10/01 11:53:32;;;;;;;4.23;3.17;;;;;;;;;;5066242;28;20232;-62
2022/10/01 11:58:53;;;;;;;3.53;2.87;;;;;;;;;;5067511;28;20198;-62
2022/10/01 12:01:31;;;;;;;6.00;3.93;;;;;;;;;;5068619;28;20223;-62
2022/10/01 12:04:05;;;;;;;8.20;4.20;;;;;;;;;;5057642;28;20247;-62
2022/10/01 12:06:37;;;;;;;4.00;3.30;;;;;;;;;;5072326;28;20214;-62
2022/10/01 12:09:08;;;;;;;8.47;2.50;;;;;;;;;;5071957;28;20198;-62
2022/10/01 12:11:39;;;;;;;6.90;3.90;;;;;;;;;;5064247;28;20266;-62
2022/10/01 12:14:10;;;;;;;3.43;3.10;;;;;;;;;;5075918;28;20309;-62
2022/10/01 12:16:41;;;;;;;3.07;2.53;;;;;;;;;;5079341;28;20684;-62
2022/10/01 12:19:16;;;;;;;3.40;2.23;;;;;;;;;;5067570;28;20252;-62
2022/10/01 12:21:47;;;;;;;6.77;3.17;;;;;;;;;;5069206;28;20262;-62
2022/10/01 12:24:16;;;;;;;3.10;2.50;;;;;;;;;;5066904;28;20525;-62
2022/10/01 12:26:48;;;;;;;2.87;2.00;;;;;;;;;;5068227;28;20209;-62
2022/10/01 12:29:20;;;;;;;2.40;2.10;;;;;;;;;;5060752;28;20610;-62
2022/10/01 12:31:52;;;;;;;3.50;2.37;;;;;;;;;;5060944;28;20213;-62
2022/10/01 12:34:25;;;;;;;2.87;2.23;;;;;;;;;;5060007;28;20231;-63
2022/10/01 12:36:59;;;;;;;2.63;2.17;;;;;;;;;;5068199;28;20711;-62
2022/10/01 12:39:39;;;;;;;3.03;1.90;;;;;;;;;;5065736;28;20225;-62
2022/10/01 12:42:14;;;;;;;3.47;2.40;;;;;;;;;;5062841;28;20204;-62
2022/10/01 12:44:50;;;;;;;2.83;1.80;;;;;;;;;;5072579;28;20214;-62
2022/10/01 12:47:23;;;;;;;3.97;1.80;;;;;;;;;;5071740;28;20213;-62
2022/10/01 12:49:56;;;;;;;3.30;1.93;;;;;;;;;;5068526;28;20278;-62
2022/10/01 12:52:32;;;;;;;3.47;1.70;;;;;;;;;;5066141;28;20264;-62
2022/10/01 12:55:12;;;;;;;1.67;1.57;;;;;;;;;;5069086;28;20213;-62
2022/10/01 12:57:45;;;;;;;2.17;1.70;;;;;;;;;;5068761;28;20230;-62
2022/10/01 13:00:15;;;;;;;1.60;1.50;;;;;;;;;;5063783;28;20206;-63
2022/10/01 13:03:02;;;;;;;2.27;1.67;;;;;;;;;;5060849;28;20206;-62
2022/10/01 13:05:36;;;;;;;2.50;1.80;;;;;;;;;;5066681;28;20665;-62
2022/10/01 13:08:12;;;;;;;3.20;1.83;;;;;;;;;;5061452;28;20203;-62
2022/10/01 13:10:45;;;;;;;5.93;2.00;;;;;;;;;;5056382;28;20201;-62
2022/10/01 13:13:15;;;;;;;2.13;1.60;;;;;;;;;;5062558;28;20281;-62
2022/10/01 13:15:48;;;;;;;2.37;2.17;;;;;;;;;;5060679;28;20202;-62
2022/10/01 13:18:21;;;;;;;1.73;1.63;;;;;;;;;;5067137;28;20226;-62
2022/10/01 13:20:56;;;;;;;2.43;1.87;;;;;;;;;;5065114;28;20215;-62
2022/10/01 13:23:29;;;;;;;1.83;1.67;;;;;;;;;;5066894;28;20226;-64
2022/10/01 13:26:01;;;;;;;1.87;1.77;;;;;;;;;;5065323;28;20563;-64
2022/10/01 13:28:32;;;;;;;1.77;1.60;;;;;;;;;;5061988;28;20273;-62
2022/10/01 13:31:01;;;;;;;2.10;1.90;;;;;;;;;;5058271;28;20202;-62
2022/10/01 13:33:30;;;;;;;1.87;1.37;;;;;;;;;;5066419;28;20240;-63
2022/10/01 13:36:01;;;;;;;3.20;2.27;;;;;;;;;;5066405;28;20284;-64
2022/10/01 13:38:30;;;;;;;5.07;2.27;;;;;;;;;;5069801;28;20207;-64
2022/10/01 13:41:00;;;;;;;1.97;1.60;;;;;;;;;;5064717;28;20266;-63
2022/10/01 13:43:28;;;;;;;2.93;1.63;;;;;;;;;;5064149;28;20219;-64
2022/10/01 13:46:04;;;;;;;1.73;1.30;;;;;;;;;;5064129;28;20721;-63
2022/10/01 13:48:34;;;;;;;2.27;1.60;;;;;;;;;;5066098;28;20242;-63
2022/10/01 13:51:05;;;;;;;2.23;1.63;;;;;;;;;;5068721;28;20576;-63
2022/10/01 13:53:36;;;;;;;1.93;1.70;;;;;;;;;;5065359;28;20233;-64
2022/10/01 13:56:04;;;;;;;1.90;1.70;;;;;;;;;;5067331;28;20624;-61
2022/10/01 13:58:35;;;;;;;2.20;1.53;;;;;;;;;;5066338;28;20667;-62
2022/10/01 14:01:05;;;;;;;2.43;1.43;;;;;;;;;;5067130;28;20208;-62
2022/10/01 14:03:41;;;;;;;1.40;1.30;;;;;;;;;;5065272;28;20227;-62
2022/10/01 14:06:16;;;;;;;1.43;1.37;;;;;;;;;;5067289;28;20661;-62
2022/10/01 14:08:47;;;;;;;2.17;1.30;;;;;;;;;;5066382;28;20198;-62
2022/10/01 14:16:57;;;;;;;2.90;1.57;;;;;;;;;;5065777;28;20318;-62
2022/10/01 14:19:27;;;;;;;2.83;1.33;;;;;;;;;;5067279;28;20282;-62
2022/10/01 14:22:15;;;;;;;1.70;1.40;;;;;;;;;;5062758;28;20199;-62
2022/10/01 14:24:52;;;;;;;2.47;1.30;;;;;;;;;;5066607;28;20312;-62
2022/10/01 14:27:23;;;;;;;1.40;1.30;;;;;;;;;;5065784;28;20705;-62
2022/10/01 14:29:59;;;;;;;2.20;1.40;;;;;;;;;;5068853;28;20717;-62
2022/10/01 14:32:33;;;;;;;1.50;1.30;;;;;;;;;;5062300;28;20199;-63
2022/10/01 14:35:20;;;;;;;1.30;1.17;;;;;;;;;;5062896;28;20214;-61
2022/10/01 14:37:49;;;;;;;1.40;1.30;;;;;;;;;;5058185;28;20214;-61
2022/10/01 14:40:19;;;;;;;1.30;1.07;;;;;;;;;;5065102;28;20202;-62
2022/10/01 14:42:56;;;;;;;1.50;1.20;;;;;;;;;;5062571;28;20284;-62
2022/10/01 14:45:24;;;;;;;1.20;1.03;;;;;;;;;;5059136;28;20220;-61
2022/10/01 14:47:59;;;;;;;2.03;1.17;;;;;;;;;;5057668;28;20201;-61
2022/10/01 14:50:28;;;;;;;1.43;1.30;;;;;;;;;;5057850;28;20209;-63
2022/10/01 14:52:57;;;;;;;1.00;1.00;;;;;;;;;;5054033;28;20204;-62
2022/10/01 14:55:26;;;;;;;2.03;1.20;;;;;;;;;;5077397;28;20294;-62
2022/10/01 14:57:55;;;;;;;0.83;0.83;;;;;;;;;;5068989;28;20214;-63
2022/10/01 15:00:24;;;;;;;1.80;1.30;;;;;;;;;;5076658;28;20206;-63
2022/10/01 15:02:52;;;;;;;1.90;1.30;;;;;;;;;;5058795;28;20214;-63
2022/10/01 15:05:22;;;;;;;1.50;1.40;;;;;;;;;;5065179;28;20291;-63
2022/10/01 15:07:50;;;;;;;1.17;1.07;;;;;;;;;;5067165;28;20217;-63
2022/10/01 15:10:20;;;;;;;1.60;1.10;;;;;;;;;;5070193;28;20210;-63
2022/10/01 15:12:50;;;;;;;2.20;1.30;;;;;;;;;;5065845;28;20213;-63
2022/10/01 15:15:19;;;;;;;1.23;1.10;;;;;;;;;;5063362;28;20226;-63